createdAt,value
2019-04-22T00:00:59.697Z,13.20
2019-04-22T00:03:39.034Z,13.10
2019-04-22T00:06:21.007Z,13.10
2019-04-22T00:09:00.107Z,13.00
2019-04-22T00:11:29.195Z,13.00
2019-04-22T00:13:56.959Z,13.00
2019-04-22T00:16:34.250Z,13.00
2019-04-22T00:21:34.894Z,13.00
2019-04-22T00:24:01.250Z,12.90
2019-04-22T00:26:37.743Z,12.90
2019-04-22T00:29:10.155Z,12.90
2019-04-22T00:31:32.936Z,12.90
2019-04-22T00:34:06.455Z,12.90
2019-04-22T00:36:36.649Z,12.80
2019-04-22T00:39:07.136Z,12.80
2019-04-22T00:41:43.954Z,12.70
2019-04-22T00:44:19.062Z,12.70
2019-04-22T00:46:46.412Z,12.60
2019-04-22T00:51:52.044Z,12.50
2019-04-22T00:54:15.775Z,12.40
2019-04-22T00:56:51.977Z,12.30
2019-04-22T00:59:18.783Z,12.20
2019-04-22T01:01:52.583Z,12.10
2019-04-22T01:04:27.570Z,12.00
2019-04-22T01:06:55.705Z,12.00
2019-04-22T01:09:23.466Z,11.90
2019-04-22T01:11:56.239Z,11.90
2019-04-22T01:14:21.943Z,11.80
2019-04-22T01:16:55.067Z,11.80
2019-04-22T01:19:21.784Z,11.60
2019-04-22T01:21:58.607Z,11.60
2019-04-22T01:24:28.065Z,11.50
2019-04-22T01:26:49.483Z,11.40
2019-04-22T01:29:21.525Z,11.30
2019-04-22T01:31:41.625Z,11.20
2019-04-22T01:34:23.200Z,11.20
2019-04-22T01:37:01.485Z,11.20
2019-04-22T01:39:40.362Z,11.20
2019-04-22T01:42:06.235Z,11.20
2019-04-22T01:44:40.255Z,11.10
2019-04-22T01:47:13.460Z,11.00
2019-04-22T01:49:40.231Z,11.00
2019-04-22T01:52:11.523Z,11.00
2019-04-22T01:54:55.613Z,11.10
2019-04-22T01:57:14.178Z,11.00
2019-04-22T01:59:36.385Z,10.90
2019-04-22T02:02:19.078Z,10.80
2019-04-22T02:05:21.652Z,10.70
2019-04-22T02:07:16.917Z,10.70
2019-04-22T02:09:49.527Z,10.70
2019-04-22T02:12:20.660Z,10.60
2019-04-22T02:15:05.672Z,10.60
2019-04-22T02:17:25.247Z,10.60
2019-04-22T02:19:57.629Z,10.60
2019-04-22T02:22:39.805Z,10.50
2019-04-22T02:25:16.487Z,10.40
2019-04-22T02:27:35.485Z,10.30
2019-04-22T02:29:51.818Z,10.30
2019-04-22T02:35:03.928Z,10.30
2019-04-22T02:37:30.418Z,10.30
2019-04-22T02:40:19.449Z,10.30
2019-04-22T02:42:35.082Z,10.30
2019-04-22T02:45:04.644Z,10.30
2019-04-22T02:47:49.938Z,10.30
2019-04-22T02:52:37.644Z,10.10
2019-04-22T02:55:07.203Z,10.10
2019-04-22T02:57:55.142Z,10.00
2019-04-22T03:00:15.377Z,9.90
2019-04-22T03:02:56.327Z,9.90
2019-04-22T03:07:48.988Z,9.80
2019-04-22T03:10:43.905Z,9.70
2019-04-22T03:12:41.638Z,9.60
2019-04-22T03:17:43.763Z,9.60
2019-04-22T03:22:55.735Z,9.50
2019-04-22T03:25:56.611Z,9.40
2019-04-22T03:27:46.380Z,9.20
2019-04-22T03:33:05.450Z,8.90
2019-04-22T03:35:37.120Z,8.90
2019-04-22T03:37:56.263Z,9.00
2019-04-22T03:40:44.716Z,9.10
2019-04-22T03:45:28.445Z,9.00
2019-04-22T03:53:14.988Z,9.10
2019-04-22T03:55:35.048Z,9.10
2019-04-22T04:00:42.952Z,9.00
2019-04-22T04:05:49.620Z,9.10
2019-04-22T04:08:14.636Z,9.20
2019-04-22T04:10:40.081Z,9.20
2019-04-22T04:13:17.644Z,9.30
2019-04-22T04:15:33.935Z,9.30
2019-04-22T04:18:09.216Z,9.30
2019-04-22T04:23:37.833Z,9.20
2019-04-22T04:30:51.839Z,9.00
2019-04-22T04:38:24.368Z,9.40
2019-04-22T04:40:51.201Z,9.60
2019-04-22T04:43:25.825Z,9.90
2019-04-22T04:45:56.536Z,10.10
2019-04-22T04:48:33.756Z,10.40
2019-04-22T04:51:11.166Z,10.70
2019-04-22T04:56:03.242Z,11.30
2019-04-22T04:58:56.355Z,11.60
2019-04-22T05:01:03.200Z,11.90
2019-04-22T05:03:39.234Z,12.20
2019-04-22T05:06:05.974Z,12.40
2019-04-22T05:08:52.601Z,12.60
2019-04-22T05:11:05.810Z,12.90
2019-04-22T05:13:49.821Z,13.10
2019-04-22T05:18:37.938Z,13.40
2019-04-22T05:23:37.427Z,13.70
2019-04-22T05:26:10.829Z,13.90
2019-04-22T05:28:35.041Z,14.00
2019-04-22T05:31:10.020Z,14.10
2019-04-22T05:33:46.290Z,14.40
2019-04-22T05:36:12.704Z,14.70
2019-04-22T05:38:53.844Z,14.90
2019-04-22T05:41:14.346Z,15.10
2019-04-22T05:43:40.773Z,15.20
2019-04-22T05:46:09.499Z,15.40
2019-04-22T05:48:45.698Z,15.70
2019-04-22T05:51:21.728Z,15.80
2019-04-22T05:53:48.323Z,15.90
2019-04-22T05:56:20.743Z,15.90
2019-04-22T05:58:53.205Z,16.10
2019-04-22T06:06:17.878Z,16.30
2019-04-22T06:08:57.595Z,16.50
2019-04-22T06:11:26.734Z,16.70
2019-04-22T06:13:59.215Z,16.90
2019-04-22T06:16:38.078Z,16.90
2019-04-22T06:19:07.588Z,17.00
2019-04-22T06:21:38.519Z,16.80
2019-04-22T06:24:14.032Z,16.90
2019-04-22T06:26:46.310Z,17.10
2019-04-22T06:29:13.762Z,17.20
2019-04-22T06:31:54.459Z,17.50
2019-04-22T06:34:11.457Z,17.80
2019-04-22T06:36:47.791Z,17.70
2019-04-22T06:39:19.030Z,17.70
2019-04-22T06:46:49.202Z,18.10
2019-04-22T06:49:18.204Z,18.00
2019-04-22T06:51:46.526Z,17.90
2019-04-22T06:54:22.293Z,18.20
2019-04-22T06:56:48.795Z,18.10
2019-04-22T06:59:18.857Z,18.40
2019-04-22T07:01:52.413Z,18.80
2019-04-22T07:04:17.249Z,19.20
2019-04-22T07:06:56.520Z,19.30
2019-04-22T07:11:53.144Z,19.30
2019-04-22T07:14:22.861Z,19.20
2019-04-22T07:16:56.184Z,19.20
2019-04-22T07:19:28.167Z,19.10
2019-04-22T07:21:57.503Z,19.20
2019-04-22T07:27:02.654Z,19.50
2019-04-22T07:29:32.738Z,19.30
2019-04-22T07:32:00.536Z,19.10
2019-04-22T07:37:09.249Z,19.40
2019-04-22T07:39:37.951Z,19.40
2019-04-22T07:42:05.249Z,19.80
2019-04-22T07:44:43.575Z,20.10
2019-04-22T07:47:13.779Z,20.30
2019-04-22T07:52:09.855Z,20.50
2019-04-22T07:54:43.422Z,21.00
2019-04-22T07:59:40.887Z,21.10
2019-04-22T08:02:16.298Z,20.80
2019-04-22T08:04:58.982Z,21.00
2019-04-22T08:07:17.731Z,21.20
2019-04-22T08:09:55.614Z,20.90
2019-04-22T08:12:14.591Z,21.30
2019-04-22T08:14:46.749Z,21.90
2019-04-22T08:17:41.508Z,21.60
2019-04-22T08:19:50.147Z,21.10
2019-04-22T08:22:15.736Z,21.10
2019-04-22T08:24:51.282Z,21.70
2019-04-22T08:27:17.850Z,22.20
2019-04-22T08:30:04.638Z,22.40
2019-04-22T08:32:21.728Z,22.70
2019-04-22T08:34:48.891Z,22.50
2019-04-22T08:40:04.201Z,21.90
2019-04-22T08:42:34.786Z,22.60
2019-04-22T08:50:03.972Z,22.90
2019-04-22T08:52:28.951Z,23.30
2019-04-22T08:55:04.780Z,23.60
2019-04-22T09:00:02.872Z,24.50
2019-04-22T09:02:38.629Z,24.00
2019-04-22T09:05:03.387Z,23.40
2019-04-22T09:07:36.782Z,23.30
2019-04-22T09:10:25.797Z,23.10
2019-04-22T09:12:51.840Z,23.10
2019-04-22T09:15:02.428Z,23.20
2019-04-22T09:17:39.894Z,23.10
2019-04-22T09:22:42.335Z,23.50
2019-04-22T09:25:06.623Z,23.50
2019-04-22T09:27:44.258Z,23.30
2019-04-22T09:30:20.412Z,23.90
2019-04-22T09:32:46.968Z,23.70
2019-04-22T09:35:16.000Z,23.80
2019-04-22T09:37:48.137Z,23.90
2019-04-22T09:40:18.400Z,23.70
2019-04-22T09:51:09.817Z,24.40
2019-04-22T09:53:47.086Z,24.40
2019-04-22T09:56:13.067Z,24.30
2019-04-22T09:58:39.805Z,24.60
2019-04-22T10:01:32.112Z,25.00
2019-04-22T10:03:53.448Z,25.20
2019-04-22T10:06:22.506Z,25.20
2019-04-22T10:08:59.325Z,25.10
2019-04-22T10:11:25.118Z,24.80
2019-04-22T10:13:47.624Z,24.00
2019-04-22T10:16:17.592Z,23.70
2019-04-22T10:18:53.017Z,24.30
2019-04-22T10:21:19.514Z,24.10
2019-04-22T10:23:44.310Z,23.90
2019-04-22T10:26:22.299Z,23.80
2019-04-22T10:28:53.238Z,23.80
2019-04-22T10:31:23.923Z,23.90
2019-04-22T10:33:46.569Z,24.00
2019-04-22T10:35:57.381Z,24.00
2019-04-22T10:38:26.565Z,23.80
2019-04-22T10:40:56.537Z,24.20
2019-04-22T10:43:25.532Z,24.60
2019-04-22T10:45:54.567Z,24.60
2019-04-22T10:48:24.042Z,23.80
2019-04-22T10:50:53.054Z,23.50
2019-04-22T10:53:21.832Z,24.10
2019-04-22T10:55:51.684Z,24.00
2019-04-22T10:58:21.049Z,24.20
2019-04-22T11:00:52.358Z,23.90
2019-04-22T11:03:22.470Z,23.50
2019-04-22T11:05:52.516Z,23.60
2019-04-22T11:08:31.977Z,23.50
2019-04-22T11:11:07.130Z,23.40
2019-04-22T11:13:24.269Z,23.70
2019-04-22T11:15:54.871Z,23.60
2019-04-22T11:18:25.264Z,23.40
2019-04-22T11:20:55.611Z,23.70
2019-04-22T11:23:24.760Z,23.30
2019-04-22T11:25:54.092Z,23.30
2019-04-22T11:28:23.364Z,23.70
2019-04-22T11:30:52.384Z,23.90
2019-04-22T11:33:22.530Z,23.70
2019-04-22T11:35:52.124Z,23.80
2019-04-22T11:38:22.531Z,23.30
2019-04-22T11:40:54.034Z,23.70
2019-04-22T11:43:22.111Z,23.60
2019-04-22T11:45:51.226Z,23.50
2019-04-22T11:48:21.454Z,23.70
2019-04-22T11:50:51.548Z,23.40
2019-04-22T11:53:20.713Z,23.60
2019-04-22T11:55:50.825Z,23.10
2019-04-22T11:58:21.051Z,23.50
2019-04-22T12:00:51.625Z,23.70
2019-04-22T12:03:21.025Z,23.50
2019-04-22T12:05:50.000Z,23.60
2019-04-22T12:08:18.748Z,23.80
2019-04-22T12:10:53.183Z,23.50
2019-04-22T12:13:18.004Z,23.50
2019-04-22T12:15:46.895Z,23.90
2019-04-22T12:18:17.296Z,24.10
2019-04-22T12:20:47.450Z,23.90
2019-04-22T12:23:17.034Z,23.80
2019-04-22T12:25:54.541Z,23.90
2019-04-22T12:28:17.210Z,24.00
2019-04-22T12:30:47.765Z,24.40
2019-04-22T12:33:17.008Z,24.50
2019-04-22T12:35:46.453Z,24.60
2019-04-22T12:38:16.979Z,24.30
2019-04-22T12:40:53.196Z,24.20
2019-04-22T12:43:18.526Z,24.20
2019-04-22T12:45:47.998Z,24.60
2019-04-22T12:48:17.086Z,24.80
2019-04-22T12:50:48.545Z,24.70
2019-04-22T12:53:20.537Z,25.10
2019-04-22T12:55:48.207Z,24.90
2019-04-22T12:58:18.087Z,24.40
2019-04-22T13:00:48.441Z,24.70
2019-04-22T13:03:18.289Z,24.40
2019-04-22T13:05:47.191Z,24.00
2019-04-22T13:08:16.033Z,24.40
2019-04-22T13:10:53.656Z,24.20
2019-04-22T13:13:15.479Z,24.00
2019-04-22T13:15:44.616Z,24.30
2019-04-22T13:18:22.773Z,24.60
2019-04-22T13:20:44.471Z,24.90
2019-04-22T13:23:13.910Z,24.30
2019-04-22T13:25:43.024Z,24.30
2019-04-22T13:28:13.261Z,24.20
2019-04-22T13:30:42.142Z,24.40
2019-04-22T13:33:10.944Z,24.70
2019-04-22T13:35:39.802Z,24.20
2019-04-22T13:38:09.073Z,23.80
2019-04-22T13:40:39.108Z,24.00
2019-04-22T13:43:09.090Z,23.90
2019-04-22T13:45:38.603Z,24.20
2019-04-22T13:53:46.161Z,23.50
2019-04-22T13:54:19.377Z,24.10
2019-04-22T13:56:01.738Z,23.70
2019-04-22T13:58:25.422Z,23.90
2019-04-22T14:00:42.543Z,24.20
2019-04-22T14:03:12.864Z,24.10
2019-04-22T14:05:44.845Z,23.60
2019-04-22T14:08:14.581Z,23.60
2019-04-22T14:10:44.746Z,23.30
2019-04-22T14:13:14.015Z,23.10
2019-04-22T14:15:43.891Z,23.00
2019-04-22T14:18:12.975Z,23.00
2019-04-22T14:20:42.782Z,23.00
2019-04-22T14:23:13.688Z,23.00
2019-04-22T14:25:43.007Z,22.80
2019-04-22T14:28:16.962Z,22.80
2019-04-22T14:30:44.216Z,22.90
2019-04-22T14:33:14.019Z,22.80
2019-04-22T14:35:43.643Z,22.70
2019-04-22T14:38:12.430Z,22.90
2019-04-22T14:40:42.943Z,22.70
2019-04-22T14:43:35.142Z,22.80
2019-04-22T14:48:43.444Z,22.80
2019-04-22T14:51:05.282Z,22.80
2019-04-22T14:53:36.918Z,22.70
2019-04-22T14:55:44.384Z,22.90
2019-04-22T14:58:13.445Z,22.60
2019-04-22T15:00:42.422Z,22.60
2019-04-22T15:03:11.300Z,22.60
2019-04-22T15:05:40.188Z,22.60
2019-04-22T15:08:10.994Z,22.70
2019-04-22T15:10:40.019Z,22.60
2019-04-22T15:13:09.531Z,22.40
2019-04-22T15:15:45.223Z,22.50
2019-04-22T15:18:13.446Z,22.50
2019-04-22T15:20:43.693Z,22.40
2019-04-22T15:23:12.802Z,22.30
2019-04-22T15:25:44.198Z,22.30
2019-04-22T15:28:13.454Z,22.30
2019-04-22T15:30:43.364Z,22.50
2019-04-22T15:33:12.600Z,22.60
2019-04-22T15:35:43.267Z,22.40
2019-04-22T15:38:13.229Z,22.40
2019-04-22T15:40:42.798Z,22.50
2019-04-22T15:43:12.981Z,22.30
2019-04-22T15:45:43.312Z,22.30
2019-04-22T15:48:12.215Z,22.20
2019-04-22T15:50:42.407Z,22.20
2019-04-22T15:53:11.669Z,22.10
2019-04-22T15:55:40.955Z,22.10
2019-04-22T15:58:10.188Z,22.10
2019-04-22T16:00:51.748Z,22.20
2019-04-22T16:03:12.370Z,22.10
2019-04-22T16:05:41.847Z,22.20
2019-04-22T16:08:10.983Z,22.30
2019-04-22T16:10:39.936Z,22.20
2019-04-22T16:13:16.443Z,22.00
2019-04-22T16:15:40.424Z,21.90
2019-04-22T16:18:12.551Z,21.90
2019-04-22T16:20:43.904Z,21.90
2019-04-22T16:23:15.600Z,21.90
2019-04-22T16:25:47.199Z,22.00
2019-04-22T16:28:17.447Z,22.00
2019-04-22T16:30:46.415Z,21.80
2019-04-22T16:33:17.195Z,21.70
2019-04-22T16:35:46.812Z,21.60
2019-04-22T16:38:16.948Z,21.50
2019-04-22T16:40:46.014Z,21.40
2019-04-22T16:43:14.828Z,21.40
2019-04-22T16:45:43.661Z,21.30
2019-04-22T16:48:13.652Z,21.20
2019-04-22T16:50:43.591Z,21.20
2019-04-22T16:53:14.154Z,21.20
2019-04-22T16:55:44.557Z,21.10
2019-04-22T16:58:14.811Z,21.10
2019-04-22T17:00:45.016Z,21.00
2019-04-22T17:03:16.279Z,21.00
2019-04-22T17:05:49.884Z,21.00
2019-04-22T17:08:19.011Z,21.10
2019-04-22T17:10:47.762Z,21.00
2019-04-22T17:13:20.715Z,20.90
2019-04-22T17:15:47.455Z,20.80
2019-04-22T17:18:37.261Z,20.80
2019-04-22T17:21:08.702Z,20.70
2019-04-22T17:23:38.459Z,20.60
2019-04-22T17:26:08.497Z,20.50
2019-04-22T17:28:39.639Z,20.50
2019-04-22T17:31:08.755Z,20.40
2019-04-22T17:33:39.371Z,20.40
2019-04-22T17:36:11.985Z,20.30
2019-04-22T17:38:52.660Z,20.30
2019-04-22T17:41:24.307Z,20.20
2019-04-22T17:44:14.955Z,20.20
2019-04-22T17:46:32.303Z,20.20
2019-04-22T17:49:10.898Z,20.10
2019-04-22T17:52:02.854Z,20.00
2019-04-22T17:54:27.259Z,19.90
2019-04-22T17:56:47.173Z,19.90
2019-04-22T17:59:18.684Z,19.80
2019-04-22T18:01:43.816Z,19.80
2019-04-22T18:03:59.528Z,19.70
2019-04-22T18:06:55.068Z,19.60
2019-04-22T18:09:19.331Z,19.50
2019-04-22T18:11:51.305Z,19.40
2019-04-22T18:14:37.254Z,19.30
2019-04-22T18:16:58.914Z,19.20
2019-04-22T18:19:21.223Z,19.20
2019-04-22T18:21:50.000Z,19.10
2019-04-22T18:24:08.074Z,19.00
2019-04-22T18:26:55.493Z,19.00
2019-04-22T18:29:25.586Z,18.90
2019-04-22T18:31:49.035Z,18.80
2019-04-22T18:34:23.621Z,18.70
2019-04-22T18:36:55.211Z,18.60
2019-04-22T18:39:37.302Z,18.50
2019-04-22T18:41:59.946Z,18.40
2019-04-22T18:44:34.753Z,18.30
2019-04-22T18:47:01.287Z,18.20
2019-04-22T18:49:37.616Z,18.20
2019-04-22T18:52:11.839Z,18.10
2019-04-22T18:54:42.278Z,18.00
2019-04-22T18:57:09.904Z,17.90
2019-04-22T18:59:28.840Z,17.90
2019-04-22T19:02:02.583Z,17.90
2019-04-22T19:04:37.721Z,17.80
2019-04-22T19:07:23.803Z,17.70
2019-04-22T19:09:59.791Z,17.70
2019-04-22T19:20:00.141Z,17.40
2019-04-22T19:22:25.225Z,17.40
2019-04-22T19:24:51.735Z,17.40
2019-04-22T19:27:26.816Z,17.30
2019-04-22T19:29:57.330Z,17.20
2019-04-22T19:32:26.571Z,17.10
2019-04-22T19:34:56.903Z,17.10
2019-04-22T19:37:28.428Z,17.10
2019-04-22T19:40:09.574Z,17.00
2019-04-22T19:45:04.617Z,16.80
2019-04-22T19:47:38.831Z,16.80
2019-04-22T19:50:11.667Z,16.80
2019-04-22T19:52:39.799Z,16.70
2019-04-22T19:55:12.337Z,16.60
2019-04-22T19:57:40.304Z,16.60
2019-04-22T20:00:10.945Z,16.50
2019-04-22T20:02:44.566Z,16.50
2019-04-22T20:05:25.923Z,16.50
2019-04-22T20:07:41.643Z,16.50
2019-04-22T20:10:20.777Z,16.40
2019-04-22T20:12:48.672Z,16.30
2019-04-22T20:15:19.902Z,16.40
2019-04-22T20:18:19.104Z,16.30
2019-04-22T20:20:31.747Z,16.30
2019-04-22T20:22:52.417Z,16.20
2019-04-22T20:25:21.350Z,16.10
2019-04-22T20:28:01.366Z,16.00
2019-04-22T20:30:34.340Z,15.90
2019-04-22T20:32:59.399Z,15.90
2019-04-22T20:35:40.424Z,15.90
2019-04-22T20:38:09.267Z,15.80
2019-04-22T20:40:39.870Z,15.80
2019-04-22T20:43:17.163Z,15.70
2019-04-22T20:45:40.245Z,15.50
2019-04-22T20:48:01.074Z,15.50
2019-04-22T20:50:41.363Z,15.50
2019-04-22T20:53:18.678Z,15.40
2019-04-22T20:55:42.046Z,15.40
2019-04-22T20:58:18.058Z,15.30
2019-04-22T21:00:40.329Z,15.30
2019-04-22T21:03:10.407Z,15.20
2019-04-22T21:05:40.158Z,15.20
2019-04-22T21:08:19.402Z,15.10
2019-04-22T21:10:44.834Z,15.10
2019-04-22T21:13:19.805Z,15.00
2019-04-22T21:15:57.555Z,15.00
2019-04-22T21:18:22.160Z,15.00
2019-04-22T21:20:56.875Z,14.90
2019-04-22T21:23:25.688Z,14.80
2019-04-22T21:25:59.906Z,14.80
2019-04-22T21:28:34.237Z,14.80
2019-04-22T21:31:00.668Z,14.70
2019-04-22T21:33:24.899Z,14.70
2019-04-22T21:38:37.463Z,14.50
2019-04-22T21:41:10.185Z,14.40
2019-04-22T21:43:42.431Z,14.40
2019-04-22T21:46:13.419Z,14.30
2019-04-22T21:48:42.279Z,14.30
2019-04-22T21:51:11.209Z,14.20
2019-04-22T21:53:52.359Z,14.20
2019-04-22T21:56:29.092Z,14.10
2019-04-22T21:58:54.576Z,14.10
2019-04-22T22:01:29.529Z,14.00
2019-04-22T22:03:57.001Z,14.00
2019-04-22T22:06:17.278Z,13.90
2019-04-22T22:08:56.793Z,13.80
2019-04-22T22:11:23.566Z,13.80
2019-04-22T22:13:55.942Z,13.80
2019-04-22T22:16:20.330Z,13.70
2019-04-22T22:19:05.508Z,13.60
2019-04-22T22:24:06.125Z,13.50
2019-04-22T22:26:35.145Z,13.50
2019-04-22T22:29:06.914Z,13.50
2019-04-22T22:34:10.898Z,13.30
2019-04-22T22:36:32.562Z,13.30
2019-04-22T22:38:58.511Z,13.30
2019-04-22T22:41:15.996Z,13.20
2019-04-22T22:43:50.418Z,13.20
2019-04-22T22:46:29.244Z,13.20
2019-04-22T22:49:09.857Z,13.10
2019-04-22T22:51:45.344Z,13.00
2019-04-22T22:54:12.074Z,12.90
2019-04-22T22:56:48.613Z,12.90
2019-04-22T22:59:08.181Z,12.90
2019-04-22T23:01:39.523Z,12.90
2019-04-22T23:04:16.522Z,12.80
2019-04-22T23:06:46.759Z,12.80
2019-04-22T23:09:12.949Z,12.70
2019-04-22T23:14:20.417Z,12.60
2019-04-22T23:16:39.839Z,12.70
2019-04-22T23:19:01.746Z,12.60
2019-04-22T23:21:39.088Z,12.50
2019-04-22T23:24:23.416Z,12.50
2019-04-22T23:26:54.094Z,12.30
2019-04-22T23:29:24.445Z,12.40
2019-04-22T23:31:52.183Z,12.30
2019-04-22T23:34:26.542Z,12.30
2019-04-22T23:36:55.983Z,12.20
2019-04-22T23:39:43.540Z,12.20
2019-04-22T23:42:16.031Z,12.20
2019-04-22T23:44:39.600Z,12.10
2019-04-22T23:47:03.125Z,12.20
2019-04-22T23:49:32.081Z,12.10
2019-04-22T23:52:13.034Z,12.10
2019-04-22T23:54:49.631Z,12.10
2019-04-22T23:57:04.720Z,12.10
